Time;durP1;ratioP1;P1;durP2;ratioP2;P2;SDS_P1;SDS_P2;PMS_P1;PMS_P2;Temp;Humidity;BMP_temperature;BMP_pressure;BME280_temperature;BME280_humidity;BME280_pressure;Samples;Min_cycle;Max_cycle;Signal;HPM_P1;HPM_P2
2023/10/03 00:00:56;;;;;;;18.73;9.65;;;14.70;99.90;;;;;;5112025;28;20243;-71
2023/10/03 00:03:24;;;;;;;23.30;11.38;;;14.70;99.90;;;;;;5111201;28;20295;-71
2023/10/03 00:05:52;;;;;;;20.67;10.15;;;14.70;99.90;;;;;;5108834;27;20224;-71
2023/10/03 00:08:22;;;;;;;17.35;9.40;;;14.70;99.90;;;;;;5132670;27;20238;-71
2023/10/03 00:10:51;;;;;;;18.48;10.05;;;14.60;99.90;;;;;;5132239;27;20199;-71
2023/10/03 00:13:19;;;;;;;20.27;10.55;;;14.60;99.90;;;;;;5126624;27;20680;-71
2023/10/03 00:15:48;;;;;;;19.27;10.13;;;14.60;99.90;;;;;;5132285;27;20222;-72
2023/10/03 00:18:16;;;;;;;20.23;10.18;;;14.60;99.90;;;;;;5132379;27;20589;-71
2023/10/03 00:20:44;;;;;;;22.30;10.63;;;14.50;99.90;;;;;;5132216;27;20679;-71
2023/10/03 00:23:12;;;;;;;19.23;10.60;;;14.60;99.90;;;;;;5119267;27;20204;-71
2023/10/03 00:25:41;;;;;;;16.77;9.32;;;14.60;99.90;;;;;;5110002;28;20273;-71
2023/10/03 00:28:10;;;;;;;21.83;10.15;;;14.50;99.90;;;;;;5108679;28;20201;-71
2023/10/03 00:30:39;;;;;;;16.17;9.13;;;14.50;99.90;;;;;;5106708;28;20208;-71
2023/10/03 00:33:10;;;;;;;20.38;10.38;;;14.50;99.90;;;;;;5111680;28;20214;-71
2023/10/03 00:35:40;;;;;;;18.30;9.55;;;14.40;99.90;;;;;;5106506;28;20228;-71
2023/10/03 00:38:13;;;;;;;19.23;9.63;;;14.40;99.90;;;;;;5111769;28;20230;-71
2023/10/03 00:40:49;;;;;;;16.83;9.10;;;14.30;99.90;;;;;;5103958;28;20204;-71
2023/10/03 00:43:17;;;;;;;18.98;9.95;;;14.30;99.90;;;;;;5103677;28;20207;-71
2023/10/03 00:45:45;;;;;;;17.42;9.88;;;14.30;99.90;;;;;;5110872;28;20224;-71
2023/10/03 00:48:13;;;;;;;17.85;10.45;;;14.30;99.90;;;;;;5111679;28;20569;-71
2023/10/03 00:50:42;;;;;;;20.20;10.50;;;14.30;99.90;;;;;;5111252;28;20238;-71
2023/10/03 00:53:12;;;;;;;21.58;10.73;;;14.30;99.90;;;;;;5108542;28;20224;-71
2023/10/03 00:55:44;;;;;;;22.92;10.32;;;14.20;99.90;;;;;;5105790;28;20227;-71
2023/10/03 00:58:24;;;;;;;19.23;10.10;;;14.20;99.90;;;;;;5106323;28;20227;-71
2023/10/03 01:00:53;;;;;;;19.33;9.90;;;14.20;99.90;;;;;;5133332;27;20207;-71
2023/10/03 01:03:27;;;;;;;23.20;11.00;;;14.10;99.90;;;;;;5132092;27;20210;-71
2023/10/03 01:05:57;;;;;;;20.88;10.65;;;14.10;99.90;;;;;;5114315;28;20230;-71
2023/10/03 01:08:26;;;;;;;19.77;10.27;;;14.10;99.90;;;;;;5114883;28;20210;-71
2023/10/03 01:10:58;;;;;;;19.75;10.10;;;14.10;99.90;;;;;;5115562;28;20294;-71
2023/10/03 01:13:27;;;;;;;20.38;10.05;;;14.10;99.90;;;;;;5115875;28;20264;-70
2023/10/03 01:15:55;;;;;;;20.40;10.95;;;14.00;99.90;;;;;;5113128;28;20231;-71
2023/10/03 01:18:26;;;;;;;21.90;10.82;;;14.00;99.90;;;;;;5111641;27;20203;-73
2023/10/03 01:21:00;;;;;;;21.73;10.43;;;14.00;99.90;;;;;;5135482;27;20203;-71
2023/10/03 01:23:34;;;;;;;21.38;10.52;;;14.00;99.90;;;;;;5136183;27;20649;-71
2023/10/03 01:26:03;;;;;;;19.27;10.40;;;14.00;99.90;;;;;;5107573;27;20693;-71
2023/10/03 01:28:31;;;;;;;19.48;10.77;;;14.00;99.90;;;;;;5113351;28;20208;-72
2023/10/03 01:30:59;;;;;;;22.30;10.50;;;13.90;99.90;;;;;;5132794;27;20233;-70
2023/10/03 01:33:27;;;;;;;23.20;9.57;;;13.90;99.90;;;;;;5135185;27;20590;-71
2023/10/03 01:35:55;;;;;;;18.73;9.95;;;13.90;99.90;;;;;;5118324;27;20242;-72
2023/10/03 01:38:24;;;;;;;17.95;9.98;;;13.90;99.90;;;;;;5115348;28;20204;-71
2023/10/03 01:40:53;;;;;;;25.38;10.55;;;13.80;99.90;;;;;;5114691;28;20215;-73
2023/10/03 01:43:21;;;;;;;24.50;10.82;;;13.80;99.90;;;;;;5110990;28;20216;-71
2023/10/03 01:45:49;;;;;;;21.65;11.07;;;13.80;99.90;;;;;;5104510;27;20244;-72
2023/10/03 01:48:18;;;;;;;20.45;10.82;;;13.80;99.90;;;;;;5111992;28;20227;-71
2023/10/03 01:50:46;;;;;;;18.55;9.63;;;13.70;99.90;;;;;;5114489;28;20247;-71
2023/10/03 01:53:15;;;;;;;21.55;10.70;;;13.70;99.90;;;;;;5114920;28;20208;-71
2023/10/03 01:55:43;;;;;;;20.83;10.38;;;13.70;99.90;;;;;;5113768;28;20314;-71
2023/10/03 01:58:13;;;;;;;20.63;10.77;;;13.70;99.90;;;;;;5114519;28;20534;-71
2023/10/03 02:00:41;;;;;;;20.60;11.23;;;13.70;99.90;;;;;;5113343;28;20621;-71
2023/10/03 02:03:12;;;;;;;18.67;10.15;;;13.60;99.90;;;;;;5114535;28;20745;-71
2023/10/03 02:05:41;;;;;;;20.17;10.77;;;13.70;99.90;;;;;;5113784;28;20226;-71
2023/10/03 02:08:15;;;;;;;21.23;9.85;;;13.70;99.90;;;;;;5114445;28;20256;-71
2023/10/03 02:10:44;;;;;;;23.23;10.75;;;13.70;99.90;;;;;;5112669;27;20262;-71
2023/10/03 02:13:14;;;;;;;20.83;9.70;;;13.60;99.90;;;;;;5134071;27;20210;-72
2023/10/03 02:15:44;;;;;;;22.35;11.10;;;13.70;99.90;;;;;;5121387;27;20227;-71
2023/10/03 02:18:13;;;;;;;24.83;10.57;;;13.60;99.90;;;;;;5114377;27;20252;-71
2023/10/03 02:20:47;;;;;;;25.40;11.02;;;13.60;99.90;;;;;;5114068;28;20208;-71
2023/10/03 02:23:19;;;;;;;21.15;10.57;;;13.60;99.90;;;;;;5114625;28;20649;-71
2023/10/03 02:25:47;;;;;;;22.63;10.82;;;13.60;99.90;;;;;;5113183;28;20224;-71
2023/10/03 02:28:17;;;;;;;27.08;10.82;;;13.60;99.90;;;;;;5108477;27;20717;-71
2023/10/03 02:30:47;;;;;;;21.27;11.20;;;13.60;99.90;;;;;;5134401;27;20295;-71
2023/10/03 02:33:16;;;;;;;18.33;10.82;;;13.60;99.90;;;;;;5123330;27;20235;-71
2023/10/03 02:35:45;;;;;;;23.30;11.25;;;13.60;99.90;;;;;;5112722;27;20501;-71
2023/10/03 02:38:24;;;;;;;23.20;11.55;;;13.60;99.90;;;;;;5117565;27;20206;-71
2023/10/03 02:40:55;;;;;;;20.50;10.70;;;13.60;99.90;;;;;;5119828;27;20207;-71
2023/10/03 02:43:24;;;;;;;21.92;11.50;;;13.60;99.90;;;;;;5113870;28;20200;-72
2023/10/03 02:45:52;;;;;;;27.45;11.73;;;13.60;99.90;;;;;;5104659;28;20657;-71
2023/10/03 02:48:21;;;;;;;25.70;11.60;;;13.60;99.90;;;;;;5096645;28;20204;-71
2023/10/03 02:50:50;;;;;;;24.58;11.38;;;13.60;99.90;;;;;;5106123;28;20201;-71
2023/10/03 02:53:19;;;;;;;24.10;11.25;;;13.60;99.90;;;;;;5110313;28;20226;-71
2023/10/03 02:55:47;;;;;;;24.27;12.05;;;13.60;99.90;;;;;;5108025;28;20254;-71
2023/10/03 02:58:16;;;;;;;20.08;10.57;;;13.60;99.90;;;;;;5113440;28;20208;-71
2023/10/03 03:00:46;;;;;;;20.92;10.75;;;13.60;99.90;;;;;;5113133;28;20295;-71
2023/10/03 03:03:14;;;;;;;19.40;10.52;;;13.60;99.90;;;;;;5111221;28;20303;-71
2023/10/03 03:05:43;;;;;;;24.00;11.93;;;13.60;99.90;;;;;;5107065;27;20220;-71
2023/10/03 03:08:23;;;;;;;18.25;10.05;;;13.60;99.90;;;;;;5130906;27;20294;-71
2023/10/03 03:10:54;;;;;;;23.00;11.20;;;13.60;99.90;;;;;;5133580;27;20238;-71
2023/10/03 03:13:24;;;;;;;21.55;10.95;;;13.60;99.90;;;;;;5104865;28;20262;-71
2023/10/03 03:15:59;;;;;;;21.50;10.55;;;13.60;99.90;;;;;;5112167;28;20238;-71
2023/10/03 03:18:30;;;;;;;22.35;11.60;;;13.60;99.90;;;;;;5105514;28;20257;-71
2023/10/03 03:20:58;;;;;;;23.52;11.98;;;13.60;99.90;;;;;;5112835;28;20214;-71
2023/10/03 03:23:30;;;;;;;20.35;10.43;;;13.70;99.90;;;;;;5112627;28;20208;-71
2023/10/03 03:26:12;;;;;;;22.25;11.90;;;13.60;99.90;;;;;;5111474;28;20663;-71
2023/10/03 03:28:40;;;;;;;23.00;11.57;;;13.60;99.90;;;;;;5113009;28;20294;-71
2023/10/03 03:31:20;;;;;;;27.08;11.93;;;13.70;99.90;;;;;;5114609;27;20263;-71
2023/10/03 03:33:50;;;;;;;24.10;12.00;;;13.70;99.90;;;;;;5117852;27;20256;-71
2023/10/03 03:36:19;;;;;;;23.17;11.93;;;13.60;99.90;;;;;;5108685;28;20243;-71
2023/10/03 03:38:47;;;;;;;22.80;11.68;;;13.70;99.90;;;;;;5123365;27;20203;-71
2023/10/03 03:41:16;;;;;;;21.42;11.07;;;13.70;99.90;;;;;;5122144;27;20200;-71
2023/10/03 03:43:44;;;;;;;27.38;12.82;;;13.70;99.90;;;;;;5112536;28;20235;-72
2023/10/03 03:46:13;;;;;;;25.13;11.75;;;13.70;99.90;;;;;;5111561;28;20309;-71
2023/10/03 03:48:41;;;;;;;25.90;12.95;;;13.70;99.90;;;;;;5105611;28;20201;-71
2023/10/03 03:51:11;;;;;;;21.92;11.27;;;13.80;99.90;;;;;;5128636;27;20203;-71
2023/10/03 03:53:39;;;;;;;22.02;12.10;;;13.80;99.90;;;;;;5133031;27;20290;-71
2023/10/03 03:56:07;;;;;;;19.63;10.45;;;13.80;99.90;;;;;;5122096;27;20268;-71
2023/10/03 03:58:37;;;;;;;22.92;12.63;;;13.80;99.90;;;;;;5112235;28;20244;-71
2023/10/03 04:01:11;;;;;;;22.23;11.50;;;13.80;99.90;;;;;;5111917;28;20332;-71
2023/10/03 04:03:42;;;;;;;25.65;13.38;;;13.80;99.90;;;;;;5110481;28;20712;-71
2023/10/03 04:06:10;;;;;;;21.17;11.07;;;13.80;99.90;;;;;;5112079;28;20242;-71
2023/10/03 04:08:39;;;;;;;21.58;11.90;;;13.80;99.90;;;;;;5106941;28;20257;-71
2023/10/03 04:11:22;;;;;;;28.50;14.02;;;13.80;99.90;;;;;;5111435;28;20203;-71
2023/10/03 04:13:55;;;;;;;29.83;15.25;;;13.80;99.90;;;;;;5104175;28;20258;-71
2023/10/03 04:16:27;;;;;;;27.48;13.52;;;13.80;99.90;;;;;;5111645;28;20242;-71
2023/10/03 04:18:56;;;;;;;34.22;14.23;;;13.80;99.90;;;;;;5111412;28;20204;-71
2023/10/03 04:21:27;;;;;;;35.08;14.73;;;13.80;99.90;;;;;;5111684;28;20261;-71
2023/10/03 04:23:55;;;;;;;33.30;14.63;;;13.80;99.90;;;;;;5110864;28;20214;-72
2023/10/03 04:26:24;;;;;;;30.00;14.85;;;13.80;99.90;;;;;;5111765;28;20251;-71
2023/10/03 04:28:52;;;;;;;31.70;16.00;;;13.80;99.90;;;;;;5111837;28;20597;-71
2023/10/03 04:31:20;;;;;;;31.95;16.13;;;13.80;99.90;;;;;;5111713;27;20239;-71
2023/10/03 04:33:48;;;;;;;34.08;15.38;;;13.80;99.90;;;;;;5111378;28;20203;-71
2023/10/03 04:36:17;;;;;;;35.78;16.52;;;13.90;99.90;;;;;;5111396;28;20742;-71
2023/10/03 04:38:45;;;;;;;30.30;16.23;;;13.90;99.90;;;;;;5111519;28;20223;-71
2023/10/03 04:41:13;;;;;;;39.40;18.50;;;13.90;99.90;;;;;;5111509;28;20196;-71
2023/10/03 04:43:41;;;;;;;35.35;17.42;;;13.90;99.90;;;;;;5110956;28;20545;-72
2023/10/03 04:46:11;;;;;;;36.13;16.88;;;13.90;99.90;;;;;;5104333;28;20316;-71
2023/10/03 04:48:39;;;;;;;32.88;16.63;;;14.00;99.90;;;;;;5132258;27;20231;-71
2023/10/03 04:51:07;;;;;;;32.42;16.83;;;14.00;99.90;;;;;;5131588;28;20564;-71
2023/10/03 04:53:36;;;;;;;42.28;18.80;;;14.00;99.90;;;;;;5117463;28;20200;-71
2023/10/03 04:56:04;;;;;;;36.80;17.50;;;14.00;99.90;;;;;;5111201;28;20241;-71
2023/10/03 04:58:32;;;;;;;38.83;18.90;;;14.00;99.90;;;;;;5104056;28;20674;-71
2023/10/03 05:01:00;;;;;;;41.30;18.60;;;14.00;99.90;;;;;;5110949;28;20675;-71
2023/10/03 05:03:28;;;;;;;40.55;18.30;;;14.10;99.90;;;;;;5106999;28;20196;-71
2023/10/03 05:05:56;;;;;;;40.45;18.90;;;14.10;99.90;;;;;;5111798;28;20311;-71
2023/10/03 05:08:24;;;;;;;41.65;18.45;;;14.10;99.90;;;;;;5106201;28;20217;-71
2023/10/03 05:10:54;;;;;;;40.47;17.20;;;14.10;99.90;;;;;;5131896;28;20690;-71
2023/10/03 05:13:22;;;;;;;37.55;18.85;;;14.20;99.90;;;;;;5117758;28;20306;-71
2023/10/03 05:15:53;;;;;;;42.55;19.48;;;14.20;99.90;;;;;;5099216;28;20217;-71
2023/10/03 05:18:20;;;;;;;35.28;17.92;;;14.30;99.90;;;;;;5110140;28;20622;-71
2023/10/03 05:20:49;;;;;;;47.60;19.88;;;14.30;99.90;;;;;;5104926;28;20196;-71
2023/10/03 05:23:17;;;;;;;37.78;18.75;;;14.40;99.90;;;;;;5108981;28;20204;-71
2023/10/03 05:25:45;;;;;;;38.67;18.92;;;14.40;99.90;;;;;;5111237;28;20697;-71
2023/10/03 05:28:16;;;;;;;44.50;19.45;;;14.40;99.90;;;;;;5111652;28;20196;-71
2023/10/03 05:30:45;;;;;;;35.97;17.90;;;14.40;99.90;;;;;;5111599;28;20287;-73
2023/10/03 05:33:13;;;;;;;38.55;18.95;;;14.40;99.90;;;;;;5104241;28;20669;-73
2023/10/03 05:35:41;;;;;;;35.55;18.08;;;14.50;99.90;;;;;;5108038;28;20223;-73
2023/10/03 05:38:09;;;;;;;38.42;18.13;;;14.50;99.90;;;;;;5123121;28;20686;-74
2023/10/03 05:40:37;;;;;;;37.42;17.02;;;14.60;99.90;;;;;;5110979;28;20733;-74
2023/10/03 05:43:07;;;;;;;42.17;18.73;;;14.60;99.90;;;;;;5100151;28;20227;-74
2023/10/03 05:45:36;;;;;;;38.08;17.23;;;14.60;99.90;;;;;;5102471;28;20231;-73
2023/10/03 05:48:05;;;;;;;37.70;18.58;;;14.60;99.90;;;;;;5108922;28;20195;-73
2023/10/03 05:50:34;;;;;;;41.03;19.20;;;14.60;99.90;;;;;;5108951;28;20248;-73
2023/10/03 05:53:06;;;;;;;38.28;18.88;;;14.70;99.90;;;;;;5110397;28;20555;-73
2023/10/03 05:55:34;;;;;;;35.92;17.17;;;14.70;99.90;;;;;;5113750;28;20573;-73
2023/10/03 05:58:05;;;;;;;40.70;17.80;;;14.70;99.90;;;;;;5109698;28;20533;-74
2023/10/03 06:00:33;;;;;;;36.33;18.65;;;14.80;99.90;;;;;;5113614;28;20231;-74
2023/10/03 06:03:03;;;;;;;34.92;17.05;;;14.80;99.90;;;;;;5109331;28;20204;-74
2023/10/03 06:05:31;;;;;;;40.85;18.13;;;14.80;99.90;;;;;;5113278;28;20255;-74
2023/10/03 06:07:59;;;;;;;34.53;18.08;;;14.90;99.90;;;;;;5112365;28;20570;-74
2023/10/03 06:10:29;;;;;;;38.85;17.75;;;14.90;99.90;;;;;;5109730;28;20302;-73
2023/10/03 06:12:57;;;;;;;40.95;17.83;;;15.00;99.90;;;;;;5107233;28;20204;-74
2023/10/03 06:15:25;;;;;;;41.08;18.70;;;15.00;99.90;;;;;;5105567;28;20223;-74
2023/10/03 06:17:53;;;;;;;39.55;17.92;;;15.00;99.90;;;;;;5113611;28;20224;-74
2023/10/03 06:20:24;;;;;;;34.35;17.38;;;15.10;99.90;;;;;;5116675;27;20236;-73
2023/10/03 06:22:54;;;;;;;33.85;16.55;;;15.10;99.90;;;;;;5108442;28;20207;-74
2023/10/03 06:25:23;;;;;;;36.40;18.58;;;15.20;99.90;;;;;;5116639;27;20231;-74
2023/10/03 06:27:51;;;;;;;33.88;16.80;;;15.20;99.90;;;;;;5134818;27;20252;-74
2023/10/03 06:30:20;;;;;;;36.38;17.23;;;15.20;99.90;;;;;;5110901;28;20203;-74
2023/10/03 06:32:48;;;;;;;36.30;17.80;;;15.30;99.90;;;;;;5113240;28;20283;-73
2023/10/03 06:35:18;;;;;;;38.08;18.75;;;15.30;99.90;;;;;;5132060;27;20264;-74
2023/10/03 06:37:48;;;;;;;39.00;18.88;;;15.30;99.90;;;;;;5134560;27;20297;-74
2023/10/03 06:40:16;;;;;;;40.45;17.58;;;15.30;99.90;;;;;;5134527;27;20248;-73
2023/10/03 06:42:44;;;;;;;38.75;18.10;;;15.40;99.90;;;;;;5113777;28;20199;-73
2023/10/03 06:45:13;;;;;;;42.00;17.27;;;15.40;99.90;;;;;;5113982;28;20326;-74
2023/10/03 06:47:41;;;;;;;35.13;17.90;;;15.50;99.90;;;;;;5113805;28;20200;-74
2023/10/03 06:50:09;;;;;;;38.72;16.98;;;15.60;99.90;;;;;;5113952;27;20210;-73
2023/10/03 06:52:37;;;;;;;35.90;17.40;;;15.60;99.90;;;;;;5114991;27;20208;-74
2023/10/03 06:55:10;;;;;;;35.78;17.58;;;15.70;99.90;;;;;;5113750;28;20248;-74
2023/10/03 06:57:40;;;;;;;37.75;17.25;;;15.70;99.90;;;;;;5113464;28;20216;-74
2023/10/03 07:00:14;;;;;;;37.25;18.25;;;15.80;99.90;;;;;;5112271;28;20203;-74
2023/10/03 07:02:42;;;;;;;41.53;18.58;;;15.90;99.90;;;;;;5112506;28;20677;-74
2023/10/03 07:05:11;;;;;;;33.53;16.98;;;15.90;99.90;;;;;;5113351;28;20784;-73
2023/10/03 07:07:40;;;;;;;36.90;17.25;;;16.00;99.90;;;;;;5113559;28;20236;-74
2023/10/03 07:10:10;;;;;;;35.65;17.08;;;16.00;99.90;;;;;;5113330;28;20303;-74
2023/10/03 07:12:38;;;;;;;31.27;17.02;;;16.10;99.90;;;;;;5111880;28;20249;-74
2023/10/03 07:15:11;;;;;;;36.47;17.20;;;16.10;99.90;;;;;;5113085;28;20700;-74
2023/10/03 07:17:39;;;;;;;36.10;17.70;;;16.10;99.90;;;;;;5112857;28;20265;-74
2023/10/03 07:20:09;;;;;;;33.85;16.73;;;16.10;99.90;;;;;;5105420;28;20231;-73
2023/10/03 07:22:38;;;;;;;35.28;16.92;;;16.20;99.90;;;;;;5100465;28;20200;-73
2023/10/03 07:25:08;;;;;;;31.02;15.25;;;16.20;99.90;;;;;;5112821;28;20265;-74
2023/10/03 07:27:41;;;;;;;32.25;16.60;;;16.20;99.90;;;;;;5100870;28;20211;-73
2023/10/03 07:30:10;;;;;;;38.38;18.10;;;16.30;99.90;;;;;;5109373;28;20221;-74
2023/10/03 07:32:38;;;;;;;36.97;18.15;;;16.30;99.90;;;;;;5108322;28;20283;-74
2023/10/03 07:35:10;;;;;;;34.70;18.13;;;16.40;99.90;;;;;;5108765;28;20225;-73
2023/10/03 07:37:40;;;;;;;34.50;17.48;;;16.40;99.90;;;;;;5112599;28;20685;-74
2023/10/03 07:40:09;;;;;;;34.17;16.95;;;16.50;99.90;;;;;;5104081;28;20206;-74
2023/10/03 07:42:40;;;;;;;28.30;14.65;;;16.50;99.90;;;;;;5108687;28;20200;-74
2023/10/03 07:45:09;;;;;;;29.80;15.52;;;16.50;99.90;;;;;;5112922;28;20249;-73
2023/10/03 07:47:39;;;;;;;33.92;16.17;;;16.50;99.90;;;;;;5112574;28;20245;-74
2023/10/03 07:50:10;;;;;;;31.42;15.95;;;16.50;99.90;;;;;;5112525;28;20657;-74
2023/10/03 07:52:38;;;;;;;30.42;15.23;;;16.50;99.90;;;;;;5111640;28;20200;-74
2023/10/03 07:55:07;;;;;;;34.67;16.38;;;16.60;99.90;;;;;;5128086;22;20251;-56
2023/10/03 07:57:37;;;;;;;30.33;14.88;;;16.60;99.90;;;;;;5091967;28;20646;-57
2023/10/03 08:00:09;;;;;;;29.50;16.30;;;16.60;99.90;;;;;;5091791;28;20733;-57
2023/10/03 08:02:43;;;;;;;26.65;14.27;;;16.70;99.90;;;;;;5078434;28;20196;-57
2023/10/03 08:05:11;;;;;;;30.00;14.32;;;16.60;99.90;;;;;;5071908;28;20196;-57
2023/10/03 08:07:42;;;;;;;29.70;15.50;;;16.80;99.90;;;;;;5083620;28;20285;-57
2023/10/03 08:10:11;;;;;;;31.00;17.00;;;16.90;99.90;;;;;;5091135;28;20225;-56
2023/10/03 08:12:39;;;;;;;26.98;15.05;;;16.90;99.90;;;;;;5078992;28;20292;-57
2023/10/03 08:15:17;;;;;;;28.08;15.13;;;17.00;99.90;;;;;;5071574;28;20211;-57
2023/10/03 08:17:48;;;;;;;29.88;14.98;;;17.10;99.90;;;;;;5084255;28;20573;-56
2023/10/03 08:20:18;;;;;;;28.17;14.95;;;17.20;99.90;;;;;;5082013;28;20217;-57
2023/10/03 08:22:50;;;;;;;32.28;15.73;;;17.30;99.90;;;;;;5075392;28;20235;-57
2023/10/03 08:25:20;;;;;;;28.48;14.88;;;17.30;99.90;;;;;;5091089;28;20277;-56
2023/10/03 08:27:49;;;;;;;28.55;14.27;;;17.40;99.90;;;;;;5091370;28;20286;-57
2023/10/03 08:30:28;;;;;;;20.13;11.93;;;17.50;99.90;;;;;;5081137;28;20790;-57
2023/10/03 08:32:57;;;;;;;24.00;13.23;;;17.60;99.90;;;;;;5071038;28;20604;-56
2023/10/03 08:35:34;;;;;;;23.13;12.88;;;17.70;99.90;;;;;;5076930;28;20209;-56
2023/10/03 08:38:05;;;;;;;22.75;12.63;;;17.80;99.90;;;;;;5084152;28;20276;-55
2023/10/03 08:40:37;;;;;;;19.95;10.55;;;17.90;99.90;;;;;;5079853;28;20320;-56
2023/10/03 08:43:09;;;;;;;17.80;9.82;;;17.90;99.90;;;;;;5071049;28;20303;-57
2023/10/03 08:45:41;;;;;;;15.70;9.73;;;18.00;99.90;;;;;;5070713;28;20211;-54
2023/10/03 08:48:10;;;;;;;13.10;9.20;;;18.20;99.90;;;;;;5078394;28;20208;-56
2023/10/03 08:50:40;;;;;;;19.50;8.80;;;18.30;99.90;;;;;;5070288;28;20231;-56
2023/10/03 08:53:16;;;;;;;17.35;9.27;;;18.40;99.90;;;;;;5077768;28;20204;-56
2023/10/03 08:55:45;;;;;;;16.80;8.95;;;18.50;99.90;;;;;;5082675;28;20207;-56
2023/10/03 08:58:18;;;;;;;11.88;7.75;;;18.60;99.90;;;;;;5090687;28;20224;-55
2023/10/03 09:00:49;;;;;;;11.98;6.93;;;18.70;99.90;;;;;;5077239;28;20728;-57
2023/10/03 09:03:18;;;;;;;13.00;6.70;;;18.80;99.90;;;;;;5074387;28;20584;-55
2023/10/03 09:05:47;;;;;;;16.75;7.18;;;19.00;99.90;;;;;;5074239;28;20594;-56
2023/10/03 09:08:15;;;;;;;8.50;5.88;;;19.20;99.90;;;;;;5090999;28;20639;-56
2023/10/03 09:10:51;;;;;;;14.63;7.05;;;19.30;99.90;;;;;;5090987;28;20757;-55
2023/10/03 09:13:27;;;;;;;8.75;6.10;;;19.40;99.90;;;;;;5091012;28;20199;-56
2023/10/03 09:16:00;;;;;;;13.05;6.85;;;19.50;99.90;;;;;;5084195;28;20261;-56
2023/10/03 09:18:29;;;;;;;10.85;6.85;;;19.60;99.90;;;;;;5072491;28;20227;-57
2023/10/03 09:21:00;;;;;;;12.38;7.05;;;19.70;99.90;;;;;;5081744;28;20251;-56
2023/10/03 09:23:38;;;;;;;11.10;7.20;;;19.80;99.90;;;;;;5075891;28;20241;-57
2023/10/03 09:26:08;;;;;;;15.82;7.50;;;19.90;99.90;;;;;;5094994;28;20211;-56
2023/10/03 09:28:40;;;;;;;10.32;6.57;;;19.90;99.90;;;;;;5094906;28;20265;-57
2023/10/03 09:31:09;;;;;;;10.82;7.28;;;19.90;99.90;;;;;;5094784;28;20608;-56
2023/10/03 09:33:41;;;;;;;14.52;7.72;;;19.90;99.90;;;;;;5082804;28;20284;-57
2023/10/03 09:36:09;;;;;;;12.40;7.32;;;19.90;99.90;;;;;;5074644;28;20211;-57
2023/10/03 09:38:44;;;;;;;11.13;6.53;;;19.90;99.90;;;;;;5073968;28;20250;-57
2023/10/03 09:41:17;;;;;;;11.45;6.60;;;19.90;99.90;;;;;;5083065;28;20296;-55
2023/10/03 09:43:47;;;;;;;11.50;6.40;;;19.90;99.90;;;;;;5074477;28;20200;-57
2023/10/03 09:46:23;;;;;;;11.65;5.95;;;19.90;99.90;;;;;;5074520;28;20216;-56
2023/10/03 09:48:56;;;;;;;8.82;5.90;;;19.90;99.90;;;;;;5080304;28;20680;-56
2023/10/03 09:51:36;;;;;;;14.10;5.88;;;19.90;99.90;;;;;;5073874;28;20295;-57
2023/10/03 09:54:07;;;;;;;11.55;6.35;;;19.90;99.90;;;;;;5074711;28;20207;-57
2023/10/03 09:56:40;;;;;;;9.25;6.47;;;19.90;99.90;;;;;;5073881;28;20213;-55
2023/10/03 09:59:08;;;;;;;11.23;6.35;;;19.90;99.90;;;;;;5073722;28;20228;-57
2023/10/03 10:01:39;;;;;;;9.77;6.68;;;19.90;99.90;;;;;;5073316;28;20278;-54
2023/10/03 10:04:08;;;;;;;8.80;6.35;;;19.90;99.90;;;;;;5078442;28;20196;-56
2023/10/03 10:06:47;;;;;;;10.68;6.53;;;20.00;99.90;;;;;;5075201;28;20208;-57
2023/10/03 10:09:27;;;;;;;9.10;6.97;;;20.00;99.90;;;;;;5088506;28;20215;-55
2023/10/03 10:12:15;;;;;;;12.02;6.65;;;20.10;99.90;;;;;;5088706;28;20201;-56
2023/10/03 10:15:14;;;;;;;10.70;6.43;;;20.20;99.90;;;;;;5074062;28;20254;-56
2023/10/03 10:17:49;;;;;;;9.02;6.30;;;20.20;99.90;;;;;;5075306;28;20254;-57
2023/10/03 10:20:21;;;;;;;10.73;6.60;;;20.30;99.90;;;;;;5077204;28;20620;-56
2023/10/03 10:23:21;;;;;;;12.73;6.80;;;20.40;99.90;;;;;;5073349;28;20236;-55
2023/10/03 10:25:56;;;;;;;12.30;6.40;;;20.50;99.90;;;;;;5078322;28;20197;-56
2023/10/03 10:28:34;;;;;;;12.15;6.50;;;20.50;99.90;;;;;;5073337;28;20208;-56
2023/10/03 10:31:25;;;;;;;17.52;6.93;;;20.50;99.90;;;;;;5072497;28;20761;-56
2023/10/03 10:34:46;;;;;;;11.00;6.38;;;20.60;99.90;;;;;;5083514;28;20204;-57
2023/10/03 10:37:22;;;;;;;10.90;6.63;;;20.70;99.90;;;;;;5073425;28;20665;-57
2023/10/03 10:40:21;;;;;;;10.63;6.68;;;20.70;99.90;;;;;;5077733;28;20307;-56
2023/10/03 10:42:55;;;;;;;11.70;6.60;;;20.80;99.90;;;;;;5083658;28;20196;-57
2023/10/03 10:45:23;;;;;;;9.13;6.55;;;20.90;99.90;;;;;;5080636;28;20291;-56
2023/10/03 10:47:54;;;;;;;9.45;6.45;;;21.00;99.90;;;;;;5083157;28;20251;-55
2023/10/03 10:50:25;;;;;;;11.05;6.38;;;21.10;99.90;;;;;;5081233;28;20229;-56
2023/10/03 10:52:56;;;;;;;14.55;6.82;;;21.10;99.90;;;;;;5073401;28;20277;-57
2023/10/03 10:55:25;;;;;;;7.43;6.32;;;21.20;99.90;;;;;;5073255;28;20220;-56
2023/10/03 10:58:03;;;;;;;12.32;6.57;;;21.20;99.90;;;;;;5093105;28;20200;-56
2023/10/03 11:00:33;;;;;;;11.88;7.00;;;21.30;99.90;;;;;;5082947;28;20232;-54
2023/10/03 11:03:02;;;;;;;10.10;6.40;;;21.40;99.90;;;;;;5078289;28;20204;-53
2023/10/03 11:05:41;;;;;;;9.88;6.32;;;21.50;99.90;;;;;;5093026;28;20669;-54
2023/10/03 11:08:11;;;;;;;12.52;6.65;;;21.60;99.90;;;;;;5093040;28;20204;-53
2023/10/03 11:10:49;;;;;;;11.80;6.95;;;21.60;99.90;;;;;;5092888;28;20254;-54
2023/10/03 11:13:17;;;;;;;9.98;6.07;;;21.80;99.90;;;;;;5092251;28;20288;-54
2023/10/03 11:15:48;;;;;;;8.45;6.20;;;22.10;99.90;;;;;;5073160;28;20262;-55
2023/10/03 11:18:16;;;;;;;13.65;6.35;;;22.50;99.90;;;;;;5088386;28;20204;-54
2023/10/03 11:20:45;;;;;;;11.68;6.63;;;23.00;99.90;;;;;;5092567;28;20232;-56
2023/10/03 11:23:18;;;;;;;16.45;6.68;;;23.50;99.90;;;;;;5092890;28;20204;-56
2023/10/03 11:25:56;;;;;;;13.05;5.70;;;23.70;99.90;;;;;;5092853;28;20724;-55
2023/10/03 11:28:24;;;;;;;10.23;5.85;;;23.50;99.90;;;;;;5092617;28;20291;-55
2023/10/03 11:31:02;;;;;;;10.15;6.00;;;23.30;99.90;;;;;;5087032;28;20271;-54
2023/10/03 11:33:41;;;;;;;9.35;6.10;;;23.10;99.90;;;;;;5072212;28;20236;-55
2023/10/03 11:36:09;;;;;;;10.98;6.28;;;23.00;99.90;;;;;;5072757;28;20197;-54
2023/10/03 11:38:45;;;;;;;10.45;5.82;;;22.80;99.90;;;;;;5072201;28;20215;-54
2023/10/03 11:41:14;;;;;;;10.25;6.18;;;22.80;99.90;;;;;;5072190;28;20224;-55
2023/10/03 11:43:46;;;;;;;8.48;6.57;;;22.70;99.90;;;;;;5071984;28;20236;-53
2023/10/03 11:46:15;;;;;;;8.85;5.65;;;22.70;99.90;;;;;;5073542;28;20200;-54
2023/10/03 11:48:44;;;;;;;11.40;6.32;;;22.80;99.90;;;;;;5082792;28;20247;-55
2023/10/03 11:51:13;;;;;;;11.55;5.93;;;22.80;99.90;;;;;;5092484;28;20206;-54
2023/10/03 11:53:41;;;;;;;9.48;5.97;;;22.90;99.90;;;;;;5092264;28;20820;-53
2023/10/03 11:56:10;;;;;;;9.32;5.68;;;22.90;99.90;;;;;;5092169;28;20208;-55
2023/10/03 11:58:38;;;;;;;13.30;6.00;;;22.80;99.90;;;;;;5090818;28;20216;-56
2023/10/03 12:01:07;;;;;;;9.10;6.22;;;22.70;99.90;;;;;;5078557;28;20904;-54
2023/10/03 12:03:37;;;;;;;8.63;5.20;;;22.70;99.90;;;;;;5072351;28;20216;-53
2023/10/03 12:06:06;;;;;;;12.60;6.25;;;22.60;99.90;;;;;;5078622;28;20201;-55
2023/10/03 12:08:36;;;;;;;9.25;5.78;;;22.60;99.90;;;;;;5071554;28;20257;-55
2023/10/03 12:11:05;;;;;;;11.77;5.05;;;22.50;99.90;;;;;;5072003;28;20200;-54
2023/10/03 12:13:35;;;;;;;11.18;5.00;;;22.40;99.90;;;;;;5071680;28;20282;-54
2023/10/03 12:16:04;;;;;;;8.43;4.80;;;22.30;99.90;;;;;;5078173;28;20227;-54
2023/10/03 12:18:32;;;;;;;9.02;5.53;;;22.30;99.90;;;;;;5074237;28;20247;-56
2023/10/03 12:21:00;;;;;;;13.93;5.47;;;22.30;99.90;;;;;;5084414;28;20253;-55
2023/10/03 12:23:28;;;;;;;11.15;5.50;;;22.30;99.90;;;;;;5091518;28;20208;-55
2023/10/03 12:25:56;;;;;;;10.10;5.10;;;22.30;99.90;;;;;;5082686;28;20231;-54
2023/10/03 12:28:28;;;;;;;12.77;4.80;;;22.20;99.90;;;;;;5091175;28;20265;-55
2023/10/03 12:30:57;;;;;;;12.27;4.32;;;22.20;99.90;;;;;;5091470;28;20317;-53
2023/10/03 12:33:25;;;;;;;7.93;4.55;;;22.20;99.90;;;;;;5081769;28;20219;-53
2023/10/03 12:35:53;;;;;;;12.35;4.45;;;22.20;99.90;;;;;;5071250;28;20200;-55
2023/10/03 12:38:21;;;;;;;10.77;3.08;;;22.20;99.90;;;;;;5071209;28;20205;-53
2023/10/03 12:40:49;;;;;;;11.55;2.25;;;22.10;99.90;;;;;;5070823;28;20770;-53
2023/10/03 12:43:17;;;;;;;4.65;1.85;;;21.70;99.90;;;;;;5071308;28;20232;-53
2023/10/03 12:45:45;;;;;;;7.38;1.83;;;21.20;99.90;;;;;;5071205;28;20270;-54
2023/10/03 12:48:14;;;;;;;2.88;2.30;;;20.70;99.90;;;;;;5071253;28;20254;-52